createdAt,value
2023-04-11T00:04:45.115Z,7.4
2023-04-11T00:10:45.823Z,7.4
2023-04-11T00:16:44.964Z,7.5
2023-04-11T00:22:45.537Z,7.6
2023-04-11T00:28:45.197Z,7.7
2023-04-11T00:34:44.942Z,7.7
2023-04-11T00:40:45.306Z,7.4
2023-04-11T00:46:46.377Z,7.4
2023-04-11T00:52:44.955Z,7.3
2023-04-11T00:58:46.222Z,7.5
2023-04-11T01:04:44.873Z,7.4
2023-04-11T01:10:45.432Z,7.4
2023-04-11T01:16:44.994Z,7.5
2023-04-11T01:22:45.333Z,7.5
2023-04-11T01:28:44.910Z,7.2
2023-04-11T01:34:44.899Z,7.4
2023-04-11T01:40:44.834Z,7.2
2023-04-11T01:46:44.988Z,7.1
2023-04-11T01:52:44.974Z,7.1
2023-04-11T01:58:45.102Z,7
2023-04-11T02:04:45.119Z,6.7
2023-04-11T02:10:46.452Z,6.7
2023-04-11T02:16:45.446Z,6.6
2023-04-11T02:22:44.979Z,6.2
2023-04-11T02:28:44.931Z,6.4
2023-04-11T02:34:44.957Z,6.2
2023-04-11T02:40:45.703Z,6.1
2023-04-11T02:46:44.936Z,6
2023-04-11T02:52:47.238Z,5.9
2023-04-11T02:58:45.109Z,5.9
2023-04-11T03:04:45.217Z,6
2023-04-11T03:10:44.838Z,6
2023-04-11T03:16:45.390Z,5.8
2023-04-11T03:22:45.198Z,5.8
2023-04-11T03:28:45.723Z,5.6
2023-04-11T03:34:45.112Z,5.6
2023-04-11T03:40:44.930Z,5.7
2023-04-11T03:46:45.187Z,5.5
2023-04-11T03:52:45.024Z,5.5
2023-04-11T03:58:45.501Z,5.6
2023-04-11T04:04:45.139Z,5.4
2023-04-11T04:10:44.888Z,5.5
2023-04-11T04:16:45.386Z,5.3
2023-04-11T04:22:45.514Z,5.2
2023-04-11T04:28:45.987Z,5.1
2023-04-11T04:34:45.029Z,5.2
2023-04-11T04:40:45.077Z,4.9
2023-04-11T04:46:45.295Z,4.9
2023-04-11T04:52:44.889Z,4.8
2023-04-11T04:58:44.984Z,4.8
2023-04-11T05:04:44.841Z,4.9
2023-04-11T05:10:44.900Z,4.8
2023-04-11T05:16:45.698Z,4.9
2023-04-11T05:22:44.980Z,5
2023-04-11T05:28:44.832Z,5
2023-04-11T05:34:44.831Z,5
2023-04-11T05:40:44.822Z,5
2023-04-11T05:46:45.185Z,5
2023-04-11T05:52:45.619Z,5.1
2023-04-11T05:58:45.084Z,5.1
2023-04-11T06:04:45.164Z,5
2023-04-11T06:10:45.151Z,5
2023-04-11T06:16:45.315Z,4.8
2023-04-11T06:22:44.759Z,4.9
2023-04-11T06:28:44.888Z,4.9
2023-04-11T06:34:44.997Z,5.1
2023-04-11T06:40:44.964Z,5.3
2023-04-11T06:46:45.225Z,5.1
2023-04-11T06:52:45.563Z,5.3
2023-04-11T06:58:44.920Z,5.2
2023-04-11T07:04:45.791Z,5
2023-04-11T07:10:46.264Z,4.6
2023-04-11T07:16:47.236Z,4.8
2023-04-11T07:22:45.533Z,5
2023-04-11T07:28:44.983Z,4.8
2023-04-11T07:34:45.860Z,5
2023-04-11T07:40:45.470Z,4.8
2023-04-11T07:46:44.995Z,4.5
2023-04-11T07:52:44.951Z,4.5
2023-04-11T07:58:45.587Z,4.2
2023-04-11T08:04:45.015Z,4.1
2023-04-11T08:10:45.365Z,4
2023-04-11T08:16:45.169Z,4.1
2023-04-11T08:22:45.557Z,4.3
2023-04-11T08:28:45.693Z,3.9
2023-04-11T08:34:45.989Z,4.1
2023-04-11T08:40:44.949Z,3.8
2023-04-11T08:46:46.208Z,3.8
2023-04-11T08:52:47.129Z,3.7
2023-04-11T08:58:46.625Z,3
2023-04-11T09:04:45.269Z,2.9
2023-04-11T09:10:45.758Z,2.7
2023-04-11T09:16:45.035Z,2.8
2023-04-11T09:22:45.599Z,2.9
2023-04-11T09:28:46.747Z,2.3
2023-04-11T09:34:45.258Z,2.8
2023-04-11T09:40:44.827Z,2.5
2023-04-11T09:46:46.602Z,2.2
2023-04-11T09:52:44.956Z,2.3
2023-04-11T09:58:45.530Z,2.4
2023-04-11T10:04:46.058Z,2.6
2023-04-11T10:10:44.952Z,2.3
2023-04-11T10:16:45.480Z,2.4
2023-04-11T10:22:44.778Z,2.1
2023-04-11T10:28:44.811Z,2
2023-04-11T10:34:44.680Z,1.7
2023-04-11T10:40:44.731Z,2
2023-04-11T10:46:44.862Z,1.9
2023-04-11T10:52:44.820Z,1.5
2023-04-11T10:58:45.271Z,2.1
2023-04-11T11:04:44.801Z,1.5
2023-04-11T11:10:45.431Z,1.5
2023-04-11T11:16:45.149Z,1.1
2023-04-11T11:22:45.465Z,1.4
2023-04-11T11:28:46.256Z,1.5
2023-04-11T11:34:46.151Z,1
2023-04-11T11:40:44.864Z,0.5
2023-04-11T11:46:45.183Z,0.5
2023-04-11T11:52:45.037Z,1.2
2023-04-11T11:58:45.216Z,1.4
2023-04-11T12:04:45.356Z,0.3
2023-04-11T12:10:45.407Z,0.8
2023-04-11T12:16:45.217Z,1.5
2023-04-11T12:22:45.085Z,1
2023-04-11T12:28:46.272Z,1.2
2023-04-11T12:34:45.583Z,0.7
2023-04-11T12:40:45.307Z,1.1
2023-04-11T12:46:45.461Z,1.3
2023-04-11T12:52:44.983Z,1.3
2023-04-11T12:58:46.832Z,1.3
2023-04-11T13:04:45.807Z,0.9
2023-04-11T13:10:45.213Z,1.2
2023-04-11T13:16:45.109Z,1.6
2023-04-11T13:22:45.132Z,1.8
2023-04-11T13:28:45.722Z,1.3
2023-04-11T13:34:45.725Z,1.7
2023-04-11T13:40:45.538Z,1.6
2023-04-11T13:46:46.213Z,1.4
2023-04-11T13:52:45.272Z,1.5
2023-04-11T13:58:45.279Z,1.4
2023-04-11T14:04:46.480Z,1.8
2023-04-11T14:10:45.006Z,1.4
2023-04-11T14:16:46.498Z,0.9
2023-04-11T14:22:44.913Z,1.4
2023-04-11T14:28:45.029Z,1.9
2023-04-11T14:34:45.650Z,2.3
2023-04-11T14:40:45.039Z,1.9
2023-04-11T14:46:45.369Z,1.9
2023-04-11T14:52:44.989Z,2.6
2023-04-11T14:58:45.094Z,1.9
2023-04-11T15:04:46.025Z,1.6
2023-04-11T15:10:45.055Z,2
2023-04-11T15:16:45.560Z,2
2023-04-11T15:22:45.010Z,2.3
2023-04-11T15:28:46.291Z,2.6
2023-04-11T15:34:45.047Z,3.9
2023-04-11T15:40:45.038Z,3.5
2023-04-11T15:46:46.759Z,3.3
2023-04-11T15:52:45.437Z,3.8
2023-04-11T15:58:45.078Z,3.3
2023-04-11T16:04:47.833Z,4.1
2023-04-11T16:10:45.328Z,4.6
2023-04-11T16:16:45.170Z,6
2023-04-11T16:22:45.023Z,5.7
2023-04-11T16:28:45.897Z,4.5
2023-04-11T16:34:45.216Z,4.3
2023-04-11T16:40:46.829Z,4
2023-04-11T16:46:45.385Z,3.9
2023-04-11T16:52:45.617Z,4.5
2023-04-11T16:58:45.220Z,4
2023-04-11T17:04:45.275Z,3.8
2023-04-11T17:10:45.679Z,3.7
2023-04-11T17:16:45.515Z,4.1
2023-04-11T17:22:46.183Z,4.4
2023-04-11T17:28:45.135Z,4.3
2023-04-11T17:34:45.181Z,4.6
2023-04-11T17:40:45.756Z,4.7
2023-04-11T17:46:45.545Z,4.8
2023-04-11T17:52:45.090Z,4.2
2023-04-11T17:58:44.981Z,3.9
2023-04-11T18:04:45.533Z,3.9
2023-04-11T18:10:45.567Z,3.8
2023-04-11T18:16:45.829Z,3.9
2023-04-11T18:22:45.489Z,3.9
2023-04-11T18:28:44.994Z,3.9
2023-04-11T18:34:45.930Z,3.9
2023-04-11T18:40:46.065Z,3.8
2023-04-11T18:46:44.993Z,3.9
2023-04-11T18:52:45.813Z,3.9
2023-04-11T18:58:47.290Z,3.9
2023-04-11T19:04:46.140Z,3.8
2023-04-11T19:10:45.324Z,3.8
2023-04-11T19:16:45.450Z,3.8
2023-04-11T19:22:46.228Z,3.8
2023-04-11T19:28:45.323Z,3.8
2023-04-11T19:34:45.553Z,3.7
2023-04-11T19:40:45.719Z,3.8
2023-04-11T19:46:45.721Z,3.8
2023-04-11T19:52:45.074Z,3.8
2023-04-11T19:58:46.088Z,3.8
2023-04-11T20:04:46.017Z,3.8
2023-04-11T20:10:45.020Z,3.8
2023-04-11T20:16:45.258Z,4
2023-04-11T20:22:45.285Z,4.1
2023-04-11T20:28:45.267Z,4
2023-04-11T20:34:46.183Z,4.2
2023-04-11T20:40:45.195Z,4.2
2023-04-11T20:46:45.117Z,4
2023-04-11T20:52:45.184Z,4.2
2023-04-11T20:58:45.457Z,4.2
2023-04-11T21:04:45.319Z,4.2
2023-04-11T21:10:45.424Z,4.1
2023-04-11T21:16:45.215Z,4.1
2023-04-11T21:22:45.521Z,4
2023-04-11T21:28:45.878Z,4
2023-04-11T21:34:45.291Z,4
2023-04-11T21:40:45.903Z,3.9
2023-04-11T21:46:45.349Z,3.8
2023-04-11T21:52:45.467Z,3.8
2023-04-11T21:58:45.018Z,3.7
2023-04-11T22:05:04.055Z,3.7
2023-04-11T22:10:47.695Z,3.7
2023-04-11T22:16:45.413Z,3.7
2023-04-11T22:22:45.037Z,3.7
2023-04-11T22:28:45.163Z,3.9
2023-04-11T22:34:46.107Z,3.8
2023-04-11T22:40:46.489Z,3.9
2023-04-11T22:46:45.278Z,3.7
2023-04-11T22:52:45.849Z,3.8
2023-04-11T22:58:45.245Z,4
2023-04-11T23:04:45.744Z,3.9
2023-04-11T23:10:45.396Z,4
2023-04-11T23:16:45.379Z,3.8
2023-04-11T23:22:45.513Z,4
2023-04-11T23:28:45.090Z,4.1
2023-04-11T23:34:45.437Z,4.3
2023-04-11T23:40:45.292Z,4.3
2023-04-11T23:46:45.304Z,4.5
2023-04-11T23:52:45.098Z,4.6
2023-04-11T23:58:46.431Z,4.8
